sensor_id;sensor_type;location;lat;lon;timestamp;temperature;humidity
63039;DHT22;49125;48.812;9.206;2022-09-17T00:01:25;11.20;99.90
63039;DHT22;49125;48.812;9.206;2022-09-17T00:03:54;11.20;99.90
63039;DHT22;49125;48.812;9.206;2022-09-17T00:06:20;11.20;99.90
63039;DHT22;49125;48.812;9.206;2022-09-17T00:08:46;11.20;99.90
63039;DHT22;49125;48.812;9.206;2022-09-17T00:11:18;11.20;99.90
63039;DHT22;49125;48.812;9.206;2022-09-17T00:13:46;11.20;99.90
63039;DHT22;49125;48.812;9.206;2022-09-17T00:16:12;11.20;99.90
63039;DHT22;49125;48.812;9.206;2022-09-17T00:18:38;11.20;99.90
63039;DHT22;49125;48.812;9.206;2022-09-17T00:21:07;11.20;99.90
63039;DHT22;49125;48.812;9.206;2022-09-17T00:23:39;11.20;99.90
63039;DHT22;49125;48.812;9.206;2022-09-17T00:26:05;11.10;99.90
63039;DHT22;49125;48.812;9.206;2022-09-17T00:28:31;11.10;99.90
63039;DHT22;49125;48.812;9.206;2022-09-17T00:30:57;11.10;99.90
63039;DHT22;49125;48.812;9.206;2022-09-17T00:33:22;11.10;99.90
63039;DHT22;49125;48.812;9.206;2022-09-17T00:35:57;11.10;99.90
63039;DHT22;49125;48.812;9.206;2022-09-17T00:38:23;11.10;99.90
63039;DHT22;49125;48.812;9.206;2022-09-17T00:40:48;11.10;99.90
63039;DHT22;49125;48.812;9.206;2022-09-17T00:43:35;11.10;99.90
63039;DHT22;49125;48.812;9.206;2022-09-17T00:46:03;11.20;99.90
63039;DHT22;49125;48.812;9.206;2022-09-17T00:48:30;11.20;99.90
63039;DHT22;49125;48.812;9.206;2022-09-17T00:50:56;11.20;99.90
63039;DHT22;49125;48.812;9.206;2022-09-17T00:53:25;11.30;99.90
63039;DHT22;49125;48.812;9.206;2022-09-17T00:56:00;11.30;99.90
63039;DHT22;49125;48.812;9.206;2022-09-17T00:58:26;11.30;99.90
63039;DHT22;49125;48.812;9.206;2022-09-17T01:00:52;11.20;99.90
63039;DHT22;49125;48.812;9.206;2022-09-17T01:03:18;11.20;99.90
63039;DHT22;49125;48.812;9.206;2022-09-17T01:05:48;11.10;99.90
63039;DHT22;49125;48.812;9.206;2022-09-17T01:19:31;10.70;99.90
63039;DHT22;49125;48.812;9.206;2022-09-17T01:22:27;10.70;99.90
63039;DHT22;49125;48.812;9.206;2022-09-17T01:27:56;10.60;99.90
63039;DHT22;49125;48.812;9.206;2022-09-17T01:41:41;10.50;99.90
63039;DHT22;49125;48.812;9.206;2022-09-17T01:44:27;10.60;99.90
63039;DHT22;49125;48.812;9.206;2022-09-17T01:47:06;10.60;99.90
63039;DHT22;49125;48.812;9.206;2022-09-17T01:49:35;10.70;99.90
63039;DHT22;49125;48.812;9.206;2022-09-17T01:52:03;10.70;99.90
63039;DHT22;49125;48.812;9.206;2022-09-17T01:54:32;10.80;99.90
63039;DHT22;49125;48.812;9.206;2022-09-17T01:59:37;10.90;99.90
63039;DHT22;49125;48.812;9.206;2022-09-17T02:02:59;10.90;99.90
63039;DHT22;49125;48.812;9.206;2022-09-17T02:05:08;11.00;99.90
63039;DHT22;49125;48.812;9.206;2022-09-17T02:07:42;11.00;99.90
63039;DHT22;49125;48.812;9.206;2022-09-17T02:10:15;11.00;99.90
63039;DHT22;49125;48.812;9.206;2022-09-17T02:12:45;10.90;99.90
63039;DHT22;49125;48.812;9.206;2022-09-17T02:15:21;10.80;99.90
63039;DHT22;49125;48.812;9.206;2022-09-17T02:17:53;10.80;99.90
63039;DHT22;49125;48.812;9.206;2022-09-17T02:20:25;10.80;99.90
63039;DHT22;49125;48.812;9.206;2022-09-17T02:22:55;10.80;99.90
63039;DHT22;49125;48.812;9.206;2022-09-17T02:25:30;10.80;99.90
63039;DHT22;49125;48.812;9.206;2022-09-17T02:28:12;10.80;99.90
63039;DHT22;49125;48.812;9.206;2022-09-17T02:30:39;10.70;99.90
63039;DHT22;49125;48.812;9.206;2022-09-17T02:33:08;10.70;99.90
63039;DHT22;49125;48.812;9.206;2022-09-17T02:35:35;10.70;99.90
63039;DHT22;49125;48.812;9.206;2022-09-17T02:38:02;10.70;99.90
63039;DHT22;49125;48.812;9.206;2022-09-17T02:40:33;10.70;99.90
63039;DHT22;49125;48.812;9.206;2022-09-17T02:46:53;10.80;99.90
63039;DHT22;49125;48.812;9.206;2022-09-17T02:57:22;10.80;99.90
63039;DHT22;49125;48.812;9.206;2022-09-17T03:00:00;10.90;99.90
63039;DHT22;49125;48.812;9.206;2022-09-17T03:02:49;10.90;99.90
63039;DHT22;49125;48.812;9.206;2022-09-17T03:05:17;10.90;99.90
63039;DHT22;49125;48.812;9.206;2022-09-17T03:07:44;10.90;99.90
63039;DHT22;49125;48.812;9.206;2022-09-17T03:10:09;10.80;99.90
63039;DHT22;49125;48.812;9.206;2022-09-17T03:12:35;10.80;99.90
63039;DHT22;49125;48.812;9.206;2022-09-17T03:15:02;10.70;99.90
63039;DHT22;49125;48.812;9.206;2022-09-17T03:17:28;10.60;99.90
63039;DHT22;49125;48.812;9.206;2022-09-17T03:19:54;10.60;99.90
63039;DHT22;49125;48.812;9.206;2022-09-17T03:22:19;10.50;99.90
63039;DHT22;49125;48.812;9.206;2022-09-17T03:24:45;10.40;99.90
63039;DHT22;49125;48.812;9.206;2022-09-17T03:27:11;10.40;99.90
63039;DHT22;49125;48.812;9.206;2022-09-17T03:29:36;10.40;99.90
63039;DHT22;49125;48.812;9.206;2022-09-17T03:32:02;10.30;99.90
63039;DHT22;49125;48.812;9.206;2022-09-17T03:34:27;10.30;99.90
63039;DHT22;49125;48.812;9.206;2022-09-17T03:36:53;10.30;99.90
63039;DHT22;49125;48.812;9.206;2022-09-17T03:39:18;10.30;99.90
63039;DHT22;49125;48.812;9.206;2022-09-17T03:41:44;10.30;99.90
63039;DHT22;49125;48.812;9.206;2022-09-17T03:44:09;10.30;99.90
63039;DHT22;49125;48.812;9.206;2022-09-17T03:46:35;10.30;99.90
63039;DHT22;49125;48.812;9.206;2022-09-17T03:49:01;10.30;99.90
63039;DHT22;49125;48.812;9.206;2022-09-17T03:51:27;10.30;99.90
63039;DHT22;49125;48.812;9.206;2022-09-17T03:53:53;10.30;99.90
63039;DHT22;49125;48.812;9.206;2022-09-17T03:56:18;10.20;99.90
63039;DHT22;49125;48.812;9.206;2022-09-17T03:58:44;10.20;99.90
63039;DHT22;49125;48.812;9.206;2022-09-17T04:01:10;10.20;99.90
63039;DHT22;49125;48.812;9.206;2022-09-17T04:03:36;10.10;99.90
63039;DHT22;49125;48.812;9.206;2022-09-17T04:06:01;10.10;99.90
63039;DHT22;49125;48.812;9.206;2022-09-17T04:08:27;10.00;99.90
63039;DHT22;49125;48.812;9.206;2022-09-17T04:10:52;10.00;99.90
63039;DHT22;49125;48.812;9.206;2022-09-17T04:13:19;10.00;99.90
63039;DHT22;49125;48.812;9.206;2022-09-17T04:15:45;9.90;99.90
63039;DHT22;49125;48.812;9.206;2022-09-17T04:18:11;9.90;99.90
63039;DHT22;49125;48.812;9.206;2022-09-17T04:20:37;9.90;99.90
63039;DHT22;49125;48.812;9.206;2022-09-17T04:23:03;9.90;99.90
63039;DHT22;49125;48.812;9.206;2022-09-17T04:25:28;9.90;99.90
63039;DHT22;49125;48.812;9.206;2022-09-17T04:27:54;9.90;99.90
63039;DHT22;49125;48.812;9.206;2022-09-17T04:30:19;9.80;99.90
63039;DHT22;49125;48.812;9.206;2022-09-17T04:32:45;9.90;99.90
63039;DHT22;49125;48.812;9.206;2022-09-17T04:35:12;10.00;99.90
63039;DHT22;49125;48.812;9.206;2022-09-17T04:37:38;10.00;99.90
63039;DHT22;49125;48.812;9.206;2022-09-17T04:40:06;10.00;99.90
63039;DHT22;49125;48.812;9.206;2022-09-17T04:42:32;10.10;99.90
63039;DHT22;49125;48.812;9.206;2022-09-17T04:44:57;10.20;99.90
63039;DHT22;49125;48.812;9.206;2022-09-17T04:47:24;10.20;99.90
63039;DHT22;49125;48.812;9.206;2022-09-17T04:49:50;10.30;99.90
63039;DHT22;49125;48.812;9.206;2022-09-17T04:52:15;10.30;99.90
63039;DHT22;49125;48.812;9.206;2022-09-17T04:54:41;10.30;99.90
63039;DHT22;49125;48.812;9.206;2022-09-17T04:57:07;10.40;99.90
63039;DHT22;49125;48.812;9.206;2022-09-17T04:59:32;10.40;99.90
63039;DHT22;49125;48.812;9.206;2022-09-17T05:01:58;10.50;99.90
63039;DHT22;49125;48.812;9.206;2022-09-17T05:04:23;10.50;99.90
63039;DHT22;49125;48.812;9.206;2022-09-17T05:06:49;10.50;99.90
63039;DHT22;49125;48.812;9.206;2022-09-17T05:09:14;10.50;99.90
63039;DHT22;49125;48.812;9.206;2022-09-17T05:11:40;10.60;99.90
63039;DHT22;49125;48.812;9.206;2022-09-17T05:14:06;10.60;99.90
63039;DHT22;49125;48.812;9.206;2022-09-17T05:16:32;10.60;99.90
63039;DHT22;49125;48.812;9.206;2022-09-17T05:18:57;10.60;99.90
63039;DHT22;49125;48.812;9.206;2022-09-17T05:21:23;10.60;99.90
63039;DHT22;49125;48.812;9.206;2022-09-17T05:23:49;10.50;99.70
63039;DHT22;49125;48.812;9.206;2022-09-17T05:26:14;10.50;99.90
63039;DHT22;49125;48.812;9.206;2022-09-17T05:28:40;10.50;99.90
63039;DHT22;49125;48.812;9.206;2022-09-17T05:31:06;10.40;99.80
63039;DHT22;49125;48.812;9.206;2022-09-17T05:33:31;10.40;99.90
63039;DHT22;49125;48.812;9.206;2022-09-17T05:35:57;10.30;99.90
63039;DHT22;49125;48.812;9.206;2022-09-17T05:38:24;10.30;99.90
63039;DHT22;49125;48.812;9.206;2022-09-17T05:40:50;10.30;99.90
63039;DHT22;49125;48.812;9.206;2022-09-17T05:43:15;10.30;99.90
63039;DHT22;49125;48.812;9.206;2022-09-17T05:45:41;10.20;99.90
63039;DHT22;49125;48.812;9.206;2022-09-17T05:48:10;10.20;99.90
63039;DHT22;49125;48.812;9.206;2022-09-17T05:50:36;10.20;99.90
63039;DHT22;49125;48.812;9.206;2022-09-17T05:53:07;10.20;99.90
63039;DHT22;49125;48.812;9.206;2022-09-17T05:55:33;10.20;99.90
63039;DHT22;49125;48.812;9.206;2022-09-17T05:58:00;10.30;99.90
63039;DHT22;49125;48.812;9.206;2022-09-17T06:00:26;10.30;99.90
63039;DHT22;49125;48.812;9.206;2022-09-17T06:02:57;10.40;99.90
63039;DHT22;49125;48.812;9.206;2022-09-17T06:05:23;10.50;99.90
63039;DHT22;49125;48.812;9.206;2022-09-17T06:07:49;10.70;99.90
63039;DHT22;49125;48.812;9.206;2022-09-17T06:10:15;10.90;99.90
63039;DHT22;49125;48.812;9.206;2022-09-17T06:12:41;10.90;99.90
63039;DHT22;49125;48.812;9.206;2022-09-17T06:15:07;11.00;99.40
63039;DHT22;49125;48.812;9.206;2022-09-17T06:17:34;11.10;99.60
63039;DHT22;49125;48.812;9.206;2022-09-17T06:20:00;11.10;99.60
63039;DHT22;49125;48.812;9.206;2022-09-17T06:22:26;11.10;99.40
63039;DHT22;49125;48.812;9.206;2022-09-17T06:24:51;11.10;99.60
63039;DHT22;49125;48.812;9.206;2022-09-17T06:27:17;11.20;99.50
63039;DHT22;49125;48.812;9.206;2022-09-17T06:29:43;11.20;99.40
63039;DHT22;49125;48.812;9.206;2022-09-17T06:32:08;11.30;99.20
63039;DHT22;49125;48.812;9.206;2022-09-17T06:34:40;11.30;99.20
63039;DHT22;49125;48.812;9.206;2022-09-17T06:37:06;11.40;99.20
63039;DHT22;49125;48.812;9.206;2022-09-17T06:39:32;11.40;98.50
63039;DHT22;49125;48.812;9.206;2022-09-17T06:41:57;11.40;99.00
63039;DHT22;49125;48.812;9.206;2022-09-17T06:44:23;11.40;99.00
63039;DHT22;49125;48.812;9.206;2022-09-17T06:46:49;11.50;99.00
63039;DHT22;49125;48.812;9.206;2022-09-17T06:49:15;11.60;98.50
63039;DHT22;49125;48.812;9.206;2022-09-17T06:51:42;11.70;98.50
63039;DHT22;49125;48.812;9.206;2022-09-17T06:54:08;11.70;98.40
63039;DHT22;49125;48.812;9.206;2022-09-17T06:56:33;11.70;98.10
63039;DHT22;49125;48.812;9.206;2022-09-17T06:58:59;11.70;98.00
63039;DHT22;49125;48.812;9.206;2022-09-17T07:01:25;11.70;98.60
63039;DHT22;49125;48.812;9.206;2022-09-17T07:03:51;11.80;98.10
63039;DHT22;49125;48.812;9.206;2022-09-17T07:06:16;11.90;98.50
63039;DHT22;49125;48.812;9.206;2022-09-17T07:08:42;11.80;97.70
63039;DHT22;49125;48.812;9.206;2022-09-17T07:11:08;11.70;97.60
63039;DHT22;49125;48.812;9.206;2022-09-17T07:13:34;11.60;98.10
63039;DHT22;49125;48.812;9.206;2022-09-17T07:16:01;11.60;98.30
63039;DHT22;49125;48.812;9.206;2022-09-17T07:18:27;11.60;98.40
63039;DHT22;49125;48.812;9.206;2022-09-17T07:21:00;11.50;98.30
63039;DHT22;49125;48.812;9.206;2022-09-17T07:23:30;11.40;98.40
63039;DHT22;49125;48.812;9.206;2022-09-17T07:25:58;11.30;98.10
63039;DHT22;49125;48.812;9.206;2022-09-17T07:28:24;11.30;98.70
63039;DHT22;49125;48.812;9.206;2022-09-17T07:30:51;11.40;98.80
63039;DHT22;49125;48.812;9.206;2022-09-17T07:33:18;11.30;99.20
63039;DHT22;49125;48.812;9.206;2022-09-17T07:36:02;11.20;99.60
63039;DHT22;49125;48.812;9.206;2022-09-17T07:38:28;11.20;99.90
63039;DHT22;49125;48.812;9.206;2022-09-17T07:40:58;11.20;99.90
63039;DHT22;49125;48.812;9.206;2022-09-17T07:43:25;11.30;99.90
63039;DHT22;49125;48.812;9.206;2022-09-17T07:45:52;11.40;99.90
63039;DHT22;49125;48.812;9.206;2022-09-17T07:48:18;11.50;99.90
63039;DHT22;49125;48.812;9.206;2022-09-17T07:50:44;11.50;99.90
63039;DHT22;49125;48.812;9.206;2022-09-17T07:53:10;11.50;99.90
63039;DHT22;49125;48.812;9.206;2022-09-17T07:55:35;11.50;99.90
63039;DHT22;49125;48.812;9.206;2022-09-17T07:58:01;11.60;99.90
63039;DHT22;49125;48.812;9.206;2022-09-17T08:00:26;11.50;99.90
63039;DHT22;49125;48.812;9.206;2022-09-17T08:02:53;11.60;99.90
63039;DHT22;49125;48.812;9.206;2022-09-17T08:05:19;11.70;99.90
63039;DHT22;49125;48.812;9.206;2022-09-17T08:07:52;11.80;99.90
63039;DHT22;49125;48.812;9.206;2022-09-17T08:10:18;11.90;99.90
63039;DHT22;49125;48.812;9.206;2022-09-17T08:12:49;12.00;99.90
63039;DHT22;49125;48.812;9.206;2022-09-17T08:15:16;12.10;99.90
63039;DHT22;49125;48.812;9.206;2022-09-17T08:17:43;12.10;99.90
63039;DHT22;49125;48.812;9.206;2022-09-17T08:20:09;12.20;99.90
63039;DHT22;49125;48.812;9.206;2022-09-17T08:22:34;12.20;99.90
63039;DHT22;49125;48.812;9.206;2022-09-17T08:25:00;12.20;99.90
63039;DHT22;49125;48.812;9.206;2022-09-17T08:27:29;12.30;99.90
63039;DHT22;49125;48.812;9.206;2022-09-17T08:29:55;12.40;99.90
63039;DHT22;49125;48.812;9.206;2022-09-17T08:32:21;12.60;99.90
63039;DHT22;49125;48.812;9.206;2022-09-17T08:34:47;12.70;99.90
63039;DHT22;49125;48.812;9.206;2022-09-17T08:37:12;12.90;99.90
63039;DHT22;49125;48.812;9.206;2022-09-17T08:39:38;13.00;99.90
63039;DHT22;49125;48.812;9.206;2022-09-17T08:42:35;13.20;99.90
63039;DHT22;49125;48.812;9.206;2022-09-17T08:45:09;13.10;99.30
63039;DHT22;49125;48.812;9.206;2022-09-17T08:47:41;13.20;99.10
63039;DHT22;49125;48.812;9.206;2022-09-17T08:50:23;13.20;99.20
63039;DHT22;49125;48.812;9.206;2022-09-17T08:53:09;13.30;99.20
63039;DHT22;49125;48.812;9.206;2022-09-17T08:58:26;13.60;98.70
63039;DHT22;49125;48.812;9.206;2022-09-17T09:01:11;13.80;99.10
63039;DHT22;49125;48.812;9.206;2022-09-17T09:06:36;14.30;98.00
63039;DHT22;49125;48.812;9.206;2022-09-17T09:09:14;14.40;97.40
63039;DHT22;49125;48.812;9.206;2022-09-17T09:11:41;14.40;97.10
63039;DHT22;49125;48.812;9.206;2022-09-17T09:14:15;14.40;96.60
63039;DHT22;49125;48.812;9.206;2022-09-17T09:16:44;14.30;96.60
63039;DHT22;49125;48.812;9.206;2022-09-17T09:19:27;14.20;96.90
63039;DHT22;49125;48.812;9.206;2022-09-17T09:22:03;14.10;96.80
63039;DHT22;49125;48.812;9.206;2022-09-17T09:24:41;14.00;96.20
63039;DHT22;49125;48.812;9.206;2022-09-17T09:37:52;13.80;96.00
63039;DHT22;49125;48.812;9.206;2022-09-17T09:40:36;13.90;96.80
63039;DHT22;49125;48.812;9.206;2022-09-17T09:46:30;14.10;96.40
63039;DHT22;49125;48.812;9.206;2022-09-17T09:49:03;14.20;96.20
63039;DHT22;49125;48.812;9.206;2022-09-17T09:57:11;14.70;95.00
63039;DHT22;49125;48.812;9.206;2022-09-17T09:59:37;14.60;95.10
63039;DHT22;49125;48.812;9.206;2022-09-17T10:02:03;14.60;95.00
63039;DHT22;49125;48.812;9.206;2022-09-17T10:04:29;14.50;95.20
63039;DHT22;49125;48.812;9.206;2022-09-17T10:07:03;14.50;95.40
63039;DHT22;49125;48.812;9.206;2022-09-17T10:09:30;14.60;94.90
63039;DHT22;49125;48.812;9.206;2022-09-17T10:14:34;14.50;95.40
63039;DHT22;49125;48.812;9.206;2022-09-17T10:17:26;14.60;95.20
63039;DHT22;49125;48.812;9.206;2022-09-17T10:22:45;14.60;94.20
63039;DHT22;49125;48.812;9.206;2022-09-17T10:25:31;15.00;95.60
63039;DHT22;49125;48.812;9.206;2022-09-17T10:28:00;15.70;94.20
63039;DHT22;49125;48.812;9.206;2022-09-17T10:30:27;16.50;94.60
63039;DHT22;49125;48.812;9.206;2022-09-17T10:33:22;17.00;93.30
63039;DHT22;49125;48.812;9.206;2022-09-17T10:36:04;17.00;92.00
63039;DHT22;49125;48.812;9.206;2022-09-17T10:38:37;17.10;92.60
63039;DHT22;49125;48.812;9.206;2022-09-17T10:43:36;18.00;92.20
63039;DHT22;49125;48.812;9.206;2022-09-17T10:46:02;18.00;90.60
63039;DHT22;49125;48.812;9.206;2022-09-17T10:48:42;18.20;90.60
63039;DHT22;49125;48.812;9.206;2022-09-17T10:51:09;18.50;90.40
63039;DHT22;49125;48.812;9.206;2022-09-17T10:54:03;18.80;90.20
63039;DHT22;49125;48.812;9.206;2022-09-17T10:56:34;18.80;85.80
63039;DHT22;49125;48.812;9.206;2022-09-17T11:09:43;17.90;85.70
63039;DHT22;49125;48.812;9.206;2022-09-17T11:12:36;18.20;87.10
63039;DHT22;49125;48.812;9.206;2022-09-17T11:18:52;18.70;84.50
63039;DHT22;49125;48.812;9.206;2022-09-17T11:27:08;19.80;76.70
63039;DHT22;49125;48.812;9.206;2022-09-17T11:32:44;20.50;79.80
63039;DHT22;49125;48.812;9.206;2022-09-17T11:35:31;21.40;77.40
63039;DHT22;49125;48.812;9.206;2022-09-17T11:38:08;21.50;76.50
63039;DHT22;49125;48.812;9.206;2022-09-17T11:40:47;21.10;72.80
63039;DHT22;49125;48.812;9.206;2022-09-17T11:43:26;21.20;73.20
63039;DHT22;49125;48.812;9.206;2022-09-17T11:46:06;21.30;72.30
63039;DHT22;49125;48.812;9.206;2022-09-17T11:48:44;21.30;70.20
63039;DHT22;49125;48.812;9.206;2022-09-17T11:51:41;20.60;68.80
63039;DHT22;49125;48.812;9.206;2022-09-17T11:56:52;20.60;70.40
63039;DHT22;49125;48.812;9.206;2022-09-17T11:59:39;20.70;69.00
63039;DHT22;49125;48.812;9.206;2022-09-17T12:02:32;20.50;70.00
63039;DHT22;49125;48.812;9.206;2022-09-17T12:05:09;19.60;68.40
63039;DHT22;49125;48.812;9.206;2022-09-17T12:13:01;18.50;74.50
63039;DHT22;49125;48.812;9.206;2022-09-17T12:15:30;18.10;73.50
63039;DHT22;49125;48.812;9.206;2022-09-17T12:18:23;17.50;75.00
63039;DHT22;49125;48.812;9.206;2022-09-17T12:20:54;16.70;81.40
63039;DHT22;49125;48.812;9.206;2022-09-17T12:23:32;16.20;86.00
63039;DHT22;49125;48.812;9.206;2022-09-17T12:26:30;16.10;90.80
63039;DHT22;49125;48.812;9.206;2022-09-17T12:34:47;15.10;91.80
63039;DHT22;49125;48.812;9.206;2022-09-17T12:53:40;16.90;91.50
63039;DHT22;49125;48.812;9.206;2022-09-17T12:59:09;17.30;92.10
63039;DHT22;49125;48.812;9.206;2022-09-17T13:02:07;17.30;91.60
63039;DHT22;49125;48.812;9.206;2022-09-17T13:05:14;17.00;91.60
63039;DHT22;49125;48.812;9.206;2022-09-17T13:13:41;16.10;92.50
63039;DHT22;49125;48.812;9.206;2022-09-17T13:18:55;16.30;93.80
63039;DHT22;49125;48.812;9.206;2022-09-17T13:21:29;17.10;92.20
63039;DHT22;49125;48.812;9.206;2022-09-17T13:23:57;17.00;90.30
63039;DHT22;49125;48.812;9.206;2022-09-17T13:26:34;17.20;92.30
63039;DHT22;49125;48.812;9.206;2022-09-17T13:28:59;17.80;92.30
63039;DHT22;49125;48.812;9.206;2022-09-17T13:36:51;17.70;90.60
63039;DHT22;49125;48.812;9.206;2022-09-17T13:39:39;17.50;89.80
63039;DHT22;49125;48.812;9.206;2022-09-17T13:42:22;17.20;89.10
63039;DHT22;49125;48.812;9.206;2022-09-17T13:45:13;17.30;90.60
63039;DHT22;49125;48.812;9.206;2022-09-17T13:48:08;17.80;90.20
63039;DHT22;49125;48.812;9.206;2022-09-17T13:50:42;18.50;90.10
63039;DHT22;49125;48.812;9.206;2022-09-17T14:05:56;20.20;84.40
63039;DHT22;49125;48.812;9.206;2022-09-17T14:08:29;19.90;82.60
63039;DHT22;49125;48.812;9.206;2022-09-17T14:11:00;19.60;84.30
63039;DHT22;49125;48.812;9.206;2022-09-17T14:16:01;19.30;82.30
63039;DHT22;49125;48.812;9.206;2022-09-17T14:23:42;20.90;83.10
63039;DHT22;49125;48.812;9.206;2022-09-17T14:26:11;21.20;78.70
63039;DHT22;49125;48.812;9.206;2022-09-17T14:28:51;20.70;77.30
63039;DHT22;49125;48.812;9.206;2022-09-17T14:31:26;20.00;77.80
63039;DHT22;49125;48.812;9.206;2022-09-17T14:33:52;19.50;79.00
63039;DHT22;49125;48.812;9.206;2022-09-17T14:36:19;19.80;80.30
63039;DHT22;49125;48.812;9.206;2022-09-17T14:38:52;20.80;80.60
63039;DHT22;49125;48.812;9.206;2022-09-17T14:41:28;21.10;76.10
63039;DHT22;49125;48.812;9.206;2022-09-17T14:44:00;21.10;76.00
63039;DHT22;49125;48.812;9.206;2022-09-17T14:46:34;20.90;76.20
63039;DHT22;49125;48.812;9.206;2022-09-17T14:51:39;20.60;75.80
63039;DHT22;49125;48.812;9.206;2022-09-17T14:54:06;20.30;75.20
63039;DHT22;49125;48.812;9.206;2022-09-17T14:59:18;19.00;76.30
63039;DHT22;49125;48.812;9.206;2022-09-17T15:01:46;18.60;78.30
63039;DHT22;49125;48.812;9.206;2022-09-17T15:06:38;18.20;79.30
63039;DHT22;49125;48.812;9.206;2022-09-17T15:09:04;17.90;78.20
63039;DHT22;49125;48.812;9.206;2022-09-17T15:11:35;17.50;79.40
63039;DHT22;49125;48.812;9.206;2022-09-17T15:14:06;17.40;80.60
63039;DHT22;49125;48.812;9.206;2022-09-17T15:16:35;17.10;80.90
63039;DHT22;49125;48.812;9.206;2022-09-17T15:19:01;16.90;82.60
63039;DHT22;49125;48.812;9.206;2022-09-17T15:27:18;16.00;83.90
63039;DHT22;49125;48.812;9.206;2022-09-17T15:32:55;15.50;83.60
63039;DHT22;49125;48.812;9.206;2022-09-17T15:35:24;15.30;85.30
63039;DHT22;49125;48.812;9.206;2022-09-17T15:38:17;15.20;85.80
63039;DHT22;49125;48.812;9.206;2022-09-17T15:40:43;15.10;84.50
63039;DHT22;49125;48.812;9.206;2022-09-17T15:43:25;15.00;85.50
63039;DHT22;49125;48.812;9.206;2022-09-17T15:45:52;15.10;86.10
63039;DHT22;49125;48.812;9.206;2022-09-17T15:50:57;15.00;87.40
63039;DHT22;49125;48.812;9.206;2022-09-17T15:53:27;15.00;87.50
63039;DHT22;49125;48.812;9.206;2022-09-17T15:56:08;14.90;88.30
63039;DHT22;49125;48.812;9.206;2022-09-17T16:08:47;14.50;89.80
63039;DHT22;49125;48.812;9.206;2022-09-17T16:11:17;14.40;89.20
63039;DHT22;49125;48.812;9.206;2022-09-17T16:13:45;14.30;90.10
63039;DHT22;49125;48.812;9.206;2022-09-17T16:16:20;14.30;90.10
63039;DHT22;49125;48.812;9.206;2022-09-17T16:18:46;14.30;90.30
63039;DHT22;49125;48.812;9.206;2022-09-17T16:21:14;14.30;89.70
63039;DHT22;49125;48.812;9.206;2022-09-17T16:23:41;14.40;89.80
63039;DHT22;49125;48.812;9.206;2022-09-17T16:26:11;14.60;90.50
63039;DHT22;49125;48.812;9.206;2022-09-17T16:28:38;14.60;90.20
63039;DHT22;49125;48.812;9.206;2022-09-17T16:31:04;14.80;90.20
63039;DHT22;49125;48.812;9.206;2022-09-17T16:33:30;14.90;90.00
63039;DHT22;49125;48.812;9.206;2022-09-17T16:35:57;14.90;89.00
63039;DHT22;49125;48.812;9.206;2022-09-17T16:38:24;14.90;88.60
63039;DHT22;49125;48.812;9.206;2022-09-17T16:40:50;14.80;88.40
63039;DHT22;49125;48.812;9.206;2022-09-17T16:43:16;14.70;89.80
63039;DHT22;49125;48.812;9.206;2022-09-17T16:45:42;14.70;90.00
63039;DHT22;49125;48.812;9.206;2022-09-17T16:48:07;14.70;90.00
63039;DHT22;49125;48.812;9.206;2022-09-17T16:50:33;14.80;89.60
63039;DHT22;49125;48.812;9.206;2022-09-17T16:52:59;14.80;89.70
63039;DHT22;49125;48.812;9.206;2022-09-17T16:55:25;14.80;90.30
63039;DHT22;49125;48.812;9.206;2022-09-17T16:57:51;14.80;90.40
63039;DHT22;49125;48.812;9.206;2022-09-17T17:00:18;14.70;90.30
63039;DHT22;49125;48.812;9.206;2022-09-17T17:02:52;14.50;90.20
63039;DHT22;49125;48.812;9.206;2022-09-17T17:05:18;14.50;90.60
63039;DHT22;49125;48.812;9.206;2022-09-17T17:07:44;14.40;90.30
63039;DHT22;49125;48.812;9.206;2022-09-17T17:10:09;14.40;90.70
63039;DHT22;49125;48.812;9.206;2022-09-17T17:12:35;14.40;90.80
63039;DHT22;49125;48.812;9.206;2022-09-17T17:15:02;14.30;91.30
63039;DHT22;49125;48.812;9.206;2022-09-17T17:17:30;14.10;93.10
63039;DHT22;49125;48.812;9.206;2022-09-17T17:19:56;13.90;94.90
63039;DHT22;49125;48.812;9.206;2022-09-17T17:22:22;13.50;95.40
63039;DHT22;49125;48.812;9.206;2022-09-17T17:24:48;13.10;96.50
63039;DHT22;49125;48.812;9.206;2022-09-17T17:27:13;12.80;96.90
63039;DHT22;49125;48.812;9.206;2022-09-17T17:29:39;12.60;97.40
63039;DHT22;49125;48.812;9.206;2022-09-17T17:32:05;12.40;98.10
63039;DHT22;49125;48.812;9.206;2022-09-17T17:34:31;12.40;98.40
63039;DHT22;49125;48.812;9.206;2022-09-17T17:36:57;12.30;98.40
63039;DHT22;49125;48.812;9.206;2022-09-17T17:39:23;12.20;99.20
63039;DHT22;49125;48.812;9.206;2022-09-17T17:41:48;12.00;99.10
63039;DHT22;49125;48.812;9.206;2022-09-17T17:44:14;12.00;99.70
63039;DHT22;49125;48.812;9.206;2022-09-17T17:46:40;12.00;99.70
63039;DHT22;49125;48.812;9.206;2022-09-17T17:49:06;11.90;99.40
63039;DHT22;49125;48.812;9.206;2022-09-17T17:51:32;11.90;99.90
63039;DHT22;49125;48.812;9.206;2022-09-17T17:53:58;11.90;99.90
63039;DHT22;49125;48.812;9.206;2022-09-17T17:56:24;12.00;99.90
63039;DHT22;49125;48.812;9.206;2022-09-17T17:58:54;12.00;99.90
63039;DHT22;49125;48.812;9.206;2022-09-17T18:01:25;12.00;99.90
63039;DHT22;49125;48.812;9.206;2022-09-17T18:03:59;11.90;99.90
63039;DHT22;49125;48.812;9.206;2022-09-17T18:06:25;11.90;99.90
63039;DHT22;49125;48.812;9.206;2022-09-17T18:08:52;11.90;99.90
63039;DHT22;49125;48.812;9.206;2022-09-17T18:11:18;11.90;99.90
63039;DHT22;49125;48.812;9.206;2022-09-17T18:13:43;11.90;99.90
63039;DHT22;49125;48.812;9.206;2022-09-17T18:16:11;11.90;99.90
63039;DHT22;49125;48.812;9.206;2022-09-17T18:18:39;11.90;99.90
63039;DHT22;49125;48.812;9.206;2022-09-17T18:21:07;11.90;99.90
63039;DHT22;49125;48.812;9.206;2022-09-17T18:23:34;12.00;99.90
63039;DHT22;49125;48.812;9.206;2022-09-17T18:26:01;11.90;99.90
63039;DHT22;49125;48.812;9.206;2022-09-17T18:28:28;12.00;99.90
63039;DHT22;49125;48.812;9.206;2022-09-17T18:30:55;12.00;99.90
63039;DHT22;49125;48.812;9.206;2022-09-17T18:33:23;11.90;99.90
63039;DHT22;49125;48.812;9.206;2022-09-17T18:35:50;11.80;99.90
63039;DHT22;49125;48.812;9.206;2022-09-17T18:38:16;11.80;99.90
63039;DHT22;49125;48.812;9.206;2022-09-17T18:40:42;11.80;99.90
63039;DHT22;49125;48.812;9.206;2022-09-17T18:43:08;11.80;99.90
63039;DHT22;49125;48.812;9.206;2022-09-17T18:45:34;11.80;99.90
63039;DHT22;49125;48.812;9.206;2022-09-17T18:48:00;11.80;99.90
63039;DHT22;49125;48.812;9.206;2022-09-17T18:50:26;11.80;99.90
63039;DHT22;49125;48.812;9.206;2022-09-17T18:52:51;11.80;99.90
63039;DHT22;49125;48.812;9.206;2022-09-17T18:55:17;11.80;99.90
63039;DHT22;49125;48.812;9.206;2022-09-17T18:57:42;11.80;99.90
63039;DHT22;49125;48.812;9.206;2022-09-17T19:00:08;11.80;99.90